Hourly Reports from 6 nearest airdromes.

 

EGHI - Southampton Wx C, United Kingdom
Distance from station: NNW 4mi, 7km
Updated: Sun, 05-Jul-2020 14:50 BST
Clear
Clear
 Wind from W
Wind: W 15 mph , 24 km/h
Temperature: 20°C
Dew Point: 7°C
Humidity: 43%
Barometer: 1013 hPa
Summary: Clear
Visibility: greater than 7 miles , 10 km
2020/07/05 13:50 EGHI 051350Z 27013KT 210V310 CAVOK 20/07 Q1013
EGVP - Middle Wallop, United Kingdom
Distance from station: NW 20mi, 32km
Updated: Sun, 05-Jul-2020 14:50 BST
Mostly Cloudy
Mostly Cloudy
 Wind from W
Wind: W 15 mph , 24 km/h, Gust: 26 mph , 43 km/h
Temperature: 18°C
Dew Point: 8°C
Humidity: 52%
Barometer: 1013 hPa
Clouds: Mostly Cloudy
Visibility: 6 miles , 10 km
Cloud details: Partly Cloudy 1280 m
Mostly Cloudy 1463 m
2020/07/05 13:50 EGVP 051350Z AUTO 27013G23KT 9999 SCT042/// BKN048/// 18/08 Q1013
 
EGHH - Bournemouth Airp, United Kingdom
Distance from station: WSW 25mi, 40km
Updated: Sun, 05-Jul-2020 14:50 BST
Mostly Cloudy
Mostly Cloudy
 Wind from W
Wind: W 22 mph , 35 km/h
Temperature: 21°C
Dew Point: 7°C
Humidity: 40%
Barometer: 1014 hPa
Clouds: Mostly Cloudy
Visibility: 6 miles , 10 km
Cloud details: Mostly Cloudy 1372 m
2020/07/05 13:50 EGHH 051350Z 26019KT 220V320 9999 BKN045 21/07 Q1014
EGDM - Boscombe Down, United Kingdom
Distance from station: NW 27mi, 43km
Updated: Sun, 05-Jul-2020 14:50 BST
Mostly Cloudy
Mostly Cloudy
 Wind from W
Wind: W 20 mph , 31 km/h
Temperature: 18°C
Dew Point: 8°C
Humidity: 52%
Barometer: 1013 hPa
Clouds: Mostly Cloudy
Visibility: 6 miles , 10 km
Cloud details: Mostly Cloudy 1250 m
Mostly Cloudy 1494 m
2020/07/05 13:50 EGDM 051350Z AUTO 27017KT 9999 BKN041/// BKN049/// 18/08 Q1013
 
EGVO - Odiham Raf, United Kingdom
Distance from station: NNE 28mi, 44km
Updated: Sun, 05-Jul-2020 14:50 BST
Mostly Cloudy
Mostly Cloudy
 Wind from WSW
Wind: WSW 26 mph , 43 km/h
Temperature: 19°C
Dew Point: 7°C
Humidity: 46%
Barometer: 1013 hPa
Clouds: Mostly Cloudy
Visibility: 6 miles , 10 km
Cloud details: Mostly Cloudy 1341 m
2020/07/05 13:50 EGVO 051350Z AUTO 25023KT 9999 BKN044/// 19/07 Q1013
EGLF - Farnborough, United Kingdom
Distance from station: NE 35mi, 57km
Updated: Sun, 05-Jul-2020 14:50 BST
Partly Cloudy
Partly Cloudy
 Wind from W
Wind: W 17 mph , 28 km/h, Gust: 31 mph , 50 km/h
Temperature: 20°C
Dew Point: 7°C
Humidity: 43%
Barometer: 1012 hPa
Clouds: Partly Cloudy
Visibility: 6 miles , 10 km
Cloud details: Partly Cloudy 1494 m
2020/07/05 13:50 EGLF 051350Z AUTO 27015G27KT 240V310 9999 SCT049/// 20/07 Q1012

Metar display script from Saratoga-Weather.org